Time;durP1;ratioP1;P1;durP2;ratioP2;P2;SDS_P1;SDS_P2;PMS_P1;PMS_P2;Temp;Humidity;BMP_temperature;BMP_pressure;BME280_temperature;BME280_humidity;BME280_pressure;Samples;Min_cycle;Max_cycle;Signal;HPM_P1;HPM_P2
2022/11/22 00:00:50;;;;;;;0.10;0.10;;;;;;;-0.32;100.00;98534.66;5089676;28;20208;-82
2022/11/22 00:03:16;;;;;;;0.50;0.50;;;;;;;-0.34;100.00;98529.56;5091084;28;20174;-83
2022/11/22 00:05:41;;;;;;;2.23;2.13;;;;;;;-0.31;100.00;98515.56;5090781;28;20174;-83
2022/11/22 00:08:06;;;;;;;3.37;2.40;;;;;;;-0.26;100.00;98519.31;5090547;28;20193;-83
2022/11/22 00:10:32;;;;;;;0.20;0.20;;;;;;;-0.28;100.00;98519.59;5089553;28;20217;-82
2022/11/22 00:12:57;;;;;;;1.53;1.43;;;;;;;-0.32;100.00;98522.03;5091013;28;20186;-83
2022/11/22 00:15:23;;;;;;;2.43;2.33;;;;;;;-0.24;100.00;98522.50;5090658;28;20170;-84
2022/11/22 00:17:48;;;;;;;8.73;4.23;;;;;;;-0.20;100.00;98513.56;5090677;28;20288;-80
2022/11/22 00:20:13;;;;;;;4.87;2.37;;;;;;;-0.19;100.00;98511.69;5090887;28;20781;-83
2022/11/22 00:22:39;;;;;;;0.50;0.50;;;;;;;-0.16;100.00;98509.22;5091028;28;20653;-83
2022/11/22 00:25:05;;;;;;;0.23;0.23;;;;;;;-0.12;100.00;98523.69;5090697;28;20178;-86
2022/11/22 00:27:31;;;;;;;0.93;0.93;;;;;;;-0.11;100.00;98511.84;5091073;28;20431;-84
2022/11/22 00:29:56;;;;;;;0.40;0.40;;;;;;;-0.13;100.00;98499.81;5092507;28;20416;-84
2022/11/22 00:32:21;;;;;;;3.30;2.60;;;;;;;-0.09;100.00;98504.31;5095594;28;20177;-85
2022/11/22 00:34:47;;;;;;;5.20;5.03;;;;;;;-0.12;100.00;98499.53;5094920;28;20182;-83
2022/11/22 00:37:12;;;;;;;3.80;3.60;;;;;;;-0.17;100.00;98496.09;5094561;28;20208;-82
2022/11/22 00:39:37;;;;;;;0.10;0.10;;;;;;;-0.11;100.00;98498.44;5094705;28;20174;-79
2022/11/22 00:42:03;;;;;;;2.10;0.53;;;;;;;-0.17;100.00;98501.47;5094401;28;20192;-84
2022/11/22 00:44:28;;;;;;;6.13;3.63;;;;;;;-0.12;100.00;98490.69;5094383;28;20177;-83
2022/11/22 00:46:53;;;;;;;2.03;1.93;;;;;;;-0.05;100.00;98496.47;5094831;28;20513;-81
2022/11/22 00:49:19;;;;;;;2.63;1.27;;;;;;;-0.03;100.00;98494.28;5093191;28;20174;-84
2022/11/22 00:51:44;;;;;;;1.23;1.23;;;;;;;-0.05;100.00;98478.47;5094272;28;20338;-83
2022/11/22 00:54:09;;;;;;;2.07;1.87;;;;;;;-0.02;100.00;98496.69;5094132;28;20289;-85
2022/11/22 00:56:34;;;;;;;1.40;1.13;;;;;;;-0.01;100.00;98484.84;5094115;28;20213;-85
2022/11/22 00:59:00;;;;;;;6.47;2.27;;;;;;;0.00;100.00;98480.31;5094105;28;20162;-79
2022/11/22 01:01:26;;;;;;;3.40;3.23;;;;;;;0.00;100.00;98474.94;5094403;28;20271;-83
2022/11/22 01:03:52;;;;;;;2.53;2.37;;;;;;;-0.01;100.00;98474.13;5094461;28;20174;-82
2022/11/22 01:06:17;;;;;;;9.60;2.97;;;;;;;0.01;100.00;98473.84;5094111;28;20192;-84
2022/11/22 01:08:42;;;;;;;3.53;3.23;;;;;;;-0.05;100.00;98473.09;5093745;28;20538;-81
2022/11/22 01:11:08;;;;;;;5.00;3.20;;;;;;;-0.11;100.00;98468.91;5094008;28;20170;-85
2022/11/22 01:13:33;;;;;;;0.07;0.07;;;;;;;-0.05;100.00;98473.09;5093792;28;20166;-84
2022/11/22 01:16:01;;;;;;;3.40;1.20;;;;;;;-0.11;100.00;98466.22;5094194;28;20178;-84
2022/11/22 01:18:27;;;;;;;14.00;10.60;;;;;;;-0.14;100.00;98479.44;5093732;28;20201;-84
2022/11/22 01:20:52;;;;;;;15.40;6.07;;;;;;;-0.13;100.00;98475.66;5092538;28;20940;-83
2022/11/22 01:23:17;;;;;;;8.80;5.87;;;;;;;-0.24;100.00;98464.25;5092474;28;20174;-81
2022/11/22 01:25:43;;;;;;;7.90;7.10;;;;;;;-0.31;100.00;98461.13;5093903;28;20226;-82
2022/11/22 01:28:08;;;;;;;5.60;3.67;;;;;;;-0.29;100.00;98453.59;5094111;28;20174;-84
2022/11/22 01:30:34;;;;;;;2.43;1.77;;;;;;;-0.34;100.00;98449.09;5094085;28;20716;-81
2022/11/22 01:32:59;;;;;;;4.17;3.23;;;;;;;-0.31;100.00;98448.50;5093482;28;20166;-85
2022/11/22 01:35:24;;;;;;;0.70;0.70;;;;;;;-0.31;100.00;98451.19;5094114;28;20170;-83
2022/11/22 01:37:50;;;;;;;0.17;0.17;;;;;;;-0.26;100.00;98455.72;5093671;28;20197;-86
2022/11/22 01:40:15;;;;;;;1.03;1.03;;;;;;;-0.31;100.00;98448.50;5093063;28;20636;-83
2022/11/22 01:42:52;;;;;;;12.73;3.23;;;;;;;-0.34;100.00;98442.94;5092989;28;20174;-81
2022/11/22 01:45:29;;;;;;;3.87;3.57;;;;;;;-0.36;100.00;98434.38;5093566;28;20244;-86
2022/11/22 01:48:16;;;;;;;1.43;1.33;;;;;;;-0.36;100.00;98429.81;5093480;28;20700;-83
2022/11/22 01:50:45;;;;;;;9.60;2.10;;;;;;;-0.36;100.00;98420.97;5092324;28;20430;-84
2022/11/22 01:53:18;;;;;;;5.67;3.63;;;;;;;-0.36;100.00;98423.66;5093205;28;20449;-85
2022/11/22 01:55:44;;;;;;;0.87;0.83;;;;;;;-0.36;100.00;98415.59;5093430;28;20463;-85
2022/11/22 01:58:12;;;;;;;4.43;3.83;;;;;;;-0.37;100.00;98398.72;5093774;28;20460;-83
2022/11/22 02:00:37;;;;;;;3.60;3.40;;;;;;;-0.38;100.00;98399.00;5093178;28;20166;-83
2022/11/22 02:03:06;;;;;;;4.23;3.90;;;;;;;-0.35;100.00;98418.00;5091673;28;20473;-87
2022/11/22 02:05:33;;;;;;;10.93;7.97;;;;;;;-0.37;100.00;98405.97;5093385;28;20508;-85
2022/11/22 02:08:07;;;;;;;7.37;4.37;;;;;;;-0.40;100.00;98409.22;5092984;28;20439;-84
2022/11/22 02:10:36;;;;;;;1.03;1.03;;;;;;;-0.41;100.00;98410.31;5093520;28;20401;-85
2022/11/22 02:13:02;;;;;;;2.37;1.97;;;;;;;-0.42;100.00;98406.84;5091726;28;20423;-84
2022/11/22 02:15:28;;;;;;;11.80;5.77;;;;;;;-0.41;100.00;98407.63;5093061;28;20446;-84
2022/11/22 02:17:56;;;;;;;2.83;2.17;;;;;;;-0.42;100.00;98404.16;5092924;28;20499;-88
2022/11/22 02:20:21;;;;;;;2.60;2.40;;;;;;;-0.41;100.00;98402.28;5093245;28;20184;-84
2022/11/22 02:22:50;;;;;;;3.90;3.40;;;;;;;-0.43;100.00;98402.56;5092616;28;20499;-82
2022/11/22 02:25:52;;;;;;;2.63;2.43;;;;;;;-0.45;100.00;98399.34;5092863;28;20178;-84
2022/11/22 02:28:17;;;;;;;12.17;6.47;;;;;;;-0.44;100.00;98394.78;5091585;28;20419;-89
2022/11/22 02:30:43;;;;;;;7.60;6.63;;;;;;;-0.46;100.00;98394.28;5092823;28;20465;-87
2022/11/22 02:33:08;;;;;;;6.23;5.20;;;;;;;-0.46;100.00;98386.22;5092940;28;20261;-87
2022/11/22 02:35:34;;;;;;;6.80;5.23;;;;;;;-0.46;100.00;98381.66;5091623;28;20174;-88
2022/11/22 02:38:02;;;;;;;1.67;1.47;;;;;;;-0.46;100.00;98370.94;5092629;28;20615;-84
2022/11/22 02:40:33;;;;;;;14.17;7.90;;;;;;;-0.38;100.00;98386.38;5092400;28;20543;-86
2022/11/22 02:43:06;;;;;;;3.33;3.10;;;;;;;-0.40;100.00;98385.09;5092439;28;20426;-87
2022/11/22 02:45:31;;;;;;;1.80;1.70;;;;;;;-0.40;100.00;98379.72;5091431;28;20423;-86
2022/11/22 02:48:08;;;;;;;2.63;2.13;;;;;;;-0.42;100.00;98374.66;5092523;28;20427;-86
2022/11/22 02:50:34;;;;;;;1.13;1.07;;;;;;;-0.40;100.00;98364.44;5092759;28;20231;-87
2022/11/22 02:52:59;;;;;;;4.27;3.87;;;;;;;-0.43;100.00;98365.00;5091272;28;20419;-88
2022/11/22 02:55:24;;;;;;;0.83;0.83;;;;;;;-0.41;100.00;98362.03;5092704;28;20212;-85
2022/11/22 02:57:49;;;;;;;0.63;0.63;;;;;;;-0.43;100.00;98362.31;5091459;28;20241;-86
2022/11/22 03:00:15;;;;;;;0.80;0.80;;;;;;;-0.40;100.00;98374.34;5091324;28;20178;-87
2022/11/22 03:02:40;;;;;;;1.37;1.37;;;;;;;-0.38;100.00;98361.44;5092229;28;20184;-85
2022/11/22 03:05:06;;;;;;;2.73;2.57;;;;;;;-0.35;100.00;98368.91;5092467;28;20193;-88
2022/11/22 03:07:31;;;;;;;0.10;0.10;;;;;;;-0.31;100.00;98373.38;5092267;28;20173;-88
2022/11/22 03:09:56;;;;;;;0.83;0.83;;;;;;;-0.22;100.00;98368.19;5091444;28;20213;-86
2022/11/22 03:12:22;;;;;;;0.00;0.00;;;;;;;-0.12;100.00;98380.66;5092476;28;20184;-89
2022/11/22 03:14:47;;;;;;;0.53;0.53;;;;;;;-0.08;100.00;98378.97;5092058;28;20223;-84
2022/11/22 03:17:13;;;;;;;1.33;1.33;;;;;;;-0.05;100.00;98364.97;5091989;28;20562;-85
2022/11/22 03:19:38;;;;;;;0.30;0.30;;;;;;;-0.02;100.00;98349.06;5092310;28;20186;-87
2022/11/22 03:22:03;;;;;;;0.60;0.60;;;;;;;-0.02;100.00;98354.44;5092428;28;20231;-88
2022/11/22 03:24:29;;;;;;;0.00;0.00;;;;;;;0.06;100.00;98352.19;5092185;28;20170;-87
2022/11/22 03:26:54;;;;;;;3.33;2.67;;;;;;;0.02;100.00;98356.53;5092612;28;20177;-88
2022/11/22 03:29:19;;;;;;;4.83;2.50;;;;;;;0.05;100.00;98353.28;5092154;28;20170;-85
2022/11/22 03:31:45;;;;;;;1.80;1.63;;;;;;;0.02;100.00;98343.91;5092150;28;20578;-89
2022/11/22 03:34:11;;;;;;;3.50;2.63;;;;;;;0.04;100.00;98346.31;5091760;28;20181;-85
2022/11/22 03:36:36;;;;;;;1.77;1.37;;;;;;;0.01;100.00;98352.28;5091815;28;20194;-87
2022/11/22 03:39:02;;;;;;;3.93;3.63;;;;;;;0.01;100.00;98349.59;5090462;28;20420;-86
2022/11/22 03:41:28;;;;;;;3.27;2.73;;;;;;;-0.01;100.00;98345.28;5091390;28;20628;-85
2022/11/22 03:43:53;;;;;;;8.67;7.53;;;;;;;-0.04;100.00;98345.06;5091774;28;20202;-85
2022/11/22 03:46:18;;;;;;;1.20;1.13;;;;;;;-0.01;100.00;98353.34;5092427;28;20624;-87
2022/11/22 03:48:44;;;;;;;1.10;1.00;;;;;;;0.04;100.00;98354.34;5090398;28;20223;-87
2022/11/22 03:51:10;;;;;;;1.57;1.57;;;;;;;0.07;100.00;98343.81;5090238;28;20636;-89
2022/11/22 03:53:36;;;;;;;1.63;1.53;;;;;;;0.16;100.00;98349.31;5091984;28;20577;-83
2022/11/22 03:56:02;;;;;;;4.53;4.07;;;;;;;0.10;100.00;98351.28;5090772;28;20447;-87
2022/11/22 03:58:27;;;;;;;4.00;3.70;;;;;;;0.17;100.00;98356.28;5092308;28;20529;-86
2022/11/22 04:00:53;;;;;;;1.27;1.27;;;;;;;0.24;100.00;98359.38;5092353;28;20188;-86
2022/11/22 04:03:18;;;;;;;4.90;4.60;;;;;;;0.25;100.00;98348.34;5091387;28;20178;-86
2022/11/22 04:05:44;;;;;;;8.60;2.60;;;;;;;0.27;100.00;98343.47;5091045;28;20256;-85
2022/11/22 04:08:09;;;;;;;1.80;0.73;;;;;;;0.27;100.00;98346.16;5090971;28;20674;-85
2022/11/22 04:10:34;;;;;;;3.47;3.27;;;;;;;0.37;100.00;98357.81;5091467;28;20185;-83
2022/11/22 04:13:00;;;;;;;0.93;0.90;;;;;;;0.41;100.00;98356.91;5090812;28;20174;-85
2022/11/22 04:15:25;;;;;;;6.33;4.77;;;;;;;0.43;100.00;98360.09;5091198;28;20182;-84
2022/11/22 04:17:51;;;;;;;0.47;0.47;;;;;;;0.45;100.00;98352.56;5090805;28;20201;-83
2022/11/22 04:23:14;;;;;;;0.13;0.13;;;;;;;0.50;100.00;98357.03;5091191;28;20180;-82
2022/11/22 04:25:42;;;;;;;2.57;2.47;;;;;;;0.54;100.00;98361.50;5090454;28;20178;-82
2022/11/22 04:28:09;;;;;;;0.00;0.00;;;;;;;0.55;100.00;98365.78;5092037;28;20448;-82
2022/11/22 04:33:19;;;;;;;0.10;0.10;;;;;;;0.62;100.00;98372.69;5090535;28;20177;-83
2022/11/22 04:35:45;;;;;;;0.00;0.00;;;;;;;0.57;100.00;98377.03;5090688;28;20188;-82
2022/11/22 04:38:12;;;;;;;11.87;3.37;;;;;;;0.71;100.00;98382.44;5090288;28;20197;-82
2022/11/22 04:40:38;;;;;;;0.00;0.00;;;;;;;0.63;100.00;98385.81;5089115;28;20257;-81
2022/11/22 04:45:48;;;;;;;0.00;0.00;;;;;;;0.58;100.00;98391.28;5090638;28;20161;-80
2022/11/22 04:48:14;;;;;;;0.37;0.37;;;;;;;0.78;100.00;98392.78;5090497;28;20162;-82
2022/11/22 04:53:25;;;;;;;0.00;0.00;;;;;;;0.46;100.00;98389.06;5090485;28;20177;-82
2022/11/22 04:55:50;;;;;;;0.60;0.60;;;;;;;0.44;100.00;98391.25;5090526;28;20170;-85
2022/11/22 04:58:16;;;;;;;0.00;0.00;;;;;;;0.44;100.00;98399.31;5090706;28;20350;-84
2022/11/22 05:00:42;;;;;;;1.20;1.20;;;;;;;0.41;100.00;98394.53;5090329;28;20303;-83
2022/11/22 05:03:08;;;;;;;0.00;0.00;;;;;;;0.52;100.00;98390.56;5090458;28;20173;-83
2022/11/22 05:05:39;;;;;;;0.00;0.00;;;;;;;0.54;100.00;98392.97;5090417;28;20170;-85
2022/11/22 05:08:06;;;;;;;0.00;0.00;;;;;;;0.64;100.00;98400.03;5090328;28;20790;-85
2022/11/22 05:13:16;;;;;;;0.20;0.20;;;;;;;0.67;100.00;98391.38;5090379;28;20185;-84
2022/11/22 05:15:42;;;;;;;8.00;7.57;;;;;;;0.55;100.00;98389.19;5090328;28;20181;-84
2022/11/22 05:18:08;;;;;;;0.10;0.10;;;;;;;0.46;100.00;98388.28;5093740;28;20205;-83
2022/11/22 05:20:34;;;;;;;0.00;0.00;;;;;;;0.53;100.00;98394.06;5094008;28;20209;-85
2022/11/22 05:25:44;;;;;;;0.00;0.00;;;;;;;0.64;100.00;98397.38;5093739;28;20419;-83
2022/11/22 05:28:09;;;;;;;0.67;0.67;;;;;;;0.67;100.00;98394.06;5092543;28;20522;-83
2022/11/22 05:30:37;;;;;;;0.10;0.10;;;;;;;0.66;100.00;98411.28;5093758;28;20685;-82
2022/11/22 05:33:03;;;;;;;0.00;0.00;;;;;;;0.58;100.00;98394.78;5093543;28;20201;-85
2022/11/22 05:35:28;;;;;;;0.00;0.00;;;;;;;0.71;100.00;98390.50;5093646;28;20221;-82
2022/11/22 05:37:55;;;;;;;0.00;0.00;;;;;;;0.74;100.00;98397.97;5092292;28;20212;-83
2022/11/22 05:40:21;;;;;;;0.30;0.30;;;;;;;0.67;100.00;98396.75;5093384;28;20189;-83
2022/11/22 05:42:46;;;;;;;0.00;0.00;;;;;;;0.75;100.00;98396.88;5093556;28;20185;-84
2022/11/22 05:45:11;;;;;;;0.00;0.00;;;;;;;0.69;100.00;98399.94;5092062;28;20181;-83
2022/11/22 05:47:37;;;;;;;0.30;0.30;;;;;;;0.58;100.00;98389.41;5093437;28;20230;-83
2022/11/22 05:50:02;;;;;;;0.00;0.00;;;;;;;0.65;100.00;98393.56;5092161;28;20620;-85
2022/11/22 05:52:28;;;;;;;6.07;5.53;;;;;;;0.68;100.00;98398.34;5093179;28;20193;-83
2022/11/22 05:54:53;;;;;;;0.00;0.00;;;;;;;0.77;100.00;98397.38;5093254;28;20181;-82
2022/11/22 05:57:18;;;;;;;0.00;0.00;;;;;;;0.80;100.00;98404.03;5093094;28;20579;-83
2022/11/22 05:59:44;;;;;;;0.00;0.00;;;;;;;0.67;100.00;98399.44;5091968;28;20180;-83
2022/11/22 06:02:09;;;;;;;0.27;0.27;;;;;;;0.79;100.00;98405.94;5093342;28;20252;-82
2022/11/22 06:04:34;;;;;;;0.23;0.23;;;;;;;0.93;100.00;98399.78;5091781;28;20182;-82
2022/11/22 06:06:59;;;;;;;0.00;0.00;;;;;;;1.07;100.00;98395.19;5093041;28;20676;-85
2022/11/22 06:09:25;;;;;;;0.17;0.17;;;;;;;1.17;100.00;98401.16;5091726;28;20207;-81
2022/11/22 06:11:50;;;;;;;0.00;0.00;;;;;;;1.43;100.00;98400.63;5093896;28;20645;-82
2022/11/22 06:14:15;;;;;;;0.00;0.00;;;;;;;1.44;100.00;98396.84;5093576;28;20169;-83
2022/11/22 06:16:41;;;;;;;3.43;2.17;;;;;;;1.57;100.00;98392.53;5093810;28;20205;-84
2022/11/22 06:19:06;;;;;;;0.00;0.00;;;;;;;1.71;100.00;98399.47;5098391;28;20184;-82
2022/11/22 06:21:31;;;;;;;0.37;0.37;;;;;;;1.71;100.00;98401.38;5094974;28;20170;-82
2022/11/22 06:23:57;;;;;;;0.77;0.77;;;;;;;1.71;100.00;98412.13;5092868;28;20620;-83
2022/11/22 06:26:23;;;;;;;0.00;0.00;;;;;;;1.75;100.00;98413.13;5093469;28;20176;-82
2022/11/22 06:28:49;;;;;;;0.00;0.00;;;;;;;1.78;100.00;98415.22;5092622;28;20170;-82
2022/11/22 06:31:17;;;;;;;0.00;0.00;;;;;;;1.67;100.00;98417.34;5093289;28;20178;-82
2022/11/22 06:33:43;;;;;;;0.00;0.00;;;;;;;1.60;100.00;98419.66;5093235;28;20193;-82
2022/11/22 06:36:15;;;;;;;0.00;0.00;;;;;;;1.59;100.00;98420.75;5091452;28;20260;-82
2022/11/22 06:38:42;;;;;;;0.20;0.20;;;;;;;1.63;100.00;98432.50;5092556;28;20212;-82
2022/11/22 06:41:09;;;;;;;0.00;0.00;;;;;;;1.75;100.00;98435.47;5093477;28;20257;-82
2022/11/22 06:43:36;;;;;;;0.00;0.00;;;;;;;1.78;100.00;98444.81;5092781;28;20181;-89
2022/11/22 06:46:03;;;;;;;0.00;0.00;;;;;;;1.76;100.00;98439.75;5095906;28;20181;-88
2022/11/22 06:48:30;;;;;;;0.00;0.00;;;;;;;1.72;100.00;98446.81;5095840;28;20180;-89
2022/11/22 06:51:16;;;;;;;0.00;0.00;;;;;;;1.78;100.00;98447.53;5088373;28;20174;-89
2022/11/22 06:53:42;;;;;;;0.00;0.00;;;;;;;1.86;100.00;98454.84;5091476;28;20212;-90
2022/11/22 06:56:09;;;;;;;1.03;0.57;;;;;;;1.92;100.00;98440.22;5092591;28;20207;-87
2022/11/22 06:58:35;;;;;;;0.83;0.83;;;;;;;2.06;100.00;98448.25;5091318;28;20201;-90
2022/11/22 07:01:10;;;;;;;1.10;1.10;;;;;;;2.16;100.00;98445.28;5092527;28;20162;-89
2022/11/22 07:03:37;;;;;;;0.73;0.73;;;;;;;2.19;100.00;98452.00;5091036;28;20177;-88
2022/11/22 07:06:03;;;;;;;0.50;0.50;;;;;;;2.20;100.00;98450.88;5092293;28;20186;-91
2022/11/22 07:08:29;;;;;;;5.33;4.00;;;;;;;2.23;100.00;98458.34;5092317;28;20208;-87
2022/11/22 07:10:54;;;;;;;1.03;1.03;;;;;;;2.27;100.00;98459.31;5090844;28;20536;-86
2022/11/22 07:13:19;;;;;;;0.00;0.00;;;;;;;2.34;100.00;98460.50;5092334;28;20269;-88
2022/11/22 07:16:05;;;;;;;0.00;0.00;;;;;;;2.49;100.00;98463.94;5092026;28;20262;-86
2022/11/22 07:18:32;;;;;;;1.03;1.00;;;;;;;2.43;100.00;98473.22;5092089;28;20251;-89
2022/11/22 07:21:00;;;;;;;0.10;0.10;;;;;;;2.51;100.00;98470.59;5090843;28;20608;-85
2022/11/22 07:23:25;;;;;;;1.00;0.77;;;;;;;2.55;100.00;98485.06;5092091;28;20200;-88
2022/11/22 07:25:51;;;;;;;0.00;0.00;;;;;;;2.56;100.00;98494.72;5092580;28;20609;-85
2022/11/22 07:28:16;;;;;;;2.00;2.00;;;;;;;2.61;100.00;98491.94;5091721;28;20238;-79
2022/11/22 07:30:41;;;;;;;1.47;1.47;;;;;;;2.65;100.00;98495.59;5091938;28;20185;-87
2022/11/22 07:33:08;;;;;;;0.93;0.80;;;;;;;2.65;100.00;98494.81;5091553;28;20174;-88
2022/11/22 07:35:34;;;;;;;0.30;0.30;;;;;;;2.77;100.00;98495.03;5091490;28;20196;-86
2022/11/22 07:38:00;;;;;;;1.67;1.57;;;;;;;2.78;100.00;98493.94;5091229;28;20240;-86
2022/11/22 07:40:25;;;;;;;1.70;1.70;;;;;;;2.79;100.00;98498.22;5091028;28;20391;-85
2022/11/22 07:42:50;;;;;;;0.27;0.27;;;;;;;2.80;100.00;98496.31;5091218;28;20181;-87
2022/11/22 07:45:16;;;;;;;0.13;0.13;;;;;;;2.87;100.00;98499.38;5090028;28;20174;-84
2022/11/22 07:47:41;;;;;;;0.00;0.00;;;;;;;2.94;100.00;98505.94;5091381;28;20568;-86
2022/11/22 07:50:07;;;;;;;7.87;2.60;;;;;;;2.93;100.00;98515.13;5090326;28;20169;-85
2022/11/22 07:52:33;;;;;;;0.00;0.00;;;;;;;2.98;100.00;98501.50;5091411;28;20555;-86
2022/11/22 07:54:58;;;;;;;0.03;0.03;;;;;;;2.99;100.00;98513.88;5089924;28;20547;-85
2022/11/22 07:57:23;;;;;;;4.13;1.87;;;;;;;2.93;100.00;98509.72;5091065;28;20282;-83
2022/11/22 07:59:48;;;;;;;0.70;0.70;;;;;;;3.04;100.00;98520.25;5089798;28;20331;-79
2022/11/22 08:02:14;;;;;;;0.47;0.47;;;;;;;3.10;100.00;98519.03;5089763;28;20181;-79
2022/11/22 08:04:39;;;;;;;0.70;0.70;;;;;;;3.12;100.00;98523.00;5091108;28;20679;-83
2022/11/22 08:07:05;;;;;;;0.00;0.00;;;;;;;3.09;100.00;98528.22;5091025;28;20203;-83
2022/11/22 08:09:30;;;;;;;1.03;1.03;;;;;;;3.13;100.00;98542.69;5087654;28;20181;-78
2022/11/22 08:11:55;;;;;;;0.23;0.23;;;;;;;3.14;100.00;98536.97;5074446;28;20220;-78
2022/11/22 08:14:21;;;;;;;0.33;0.33;;;;;;;3.14;100.00;98536.97;5070558;28;20523;-79
2022/11/22 08:16:46;;;;;;;0.00;0.00;;;;;;;3.14;100.00;98542.38;5069323;28;20194;-78
2022/11/22 08:19:16;;;;;;;0.07;0.07;;;;;;;3.20;100.00;98543.03;5070958;28;20641;-82
2022/11/22 08:21:41;;;;;;;1.30;1.20;;;;;;;3.22;100.00;98540.84;5070876;28;20447;-81
2022/11/22 08:24:07;;;;;;;0.00;0.00;;;;;;;3.17;100.00;98546.34;5069184;28;20262;-81
2022/11/22 08:26:33;;;;;;;0.23;0.23;;;;;;;3.24;100.00;98552.91;5070843;28;20618;-81
2022/11/22 08:28:58;;;;;;;0.00;0.00;;;;;;;3.26;100.00;98555.28;5070492;28;20178;-80
2022/11/22 08:31:24;;;;;;;0.00;0.00;;;;;;;3.32;100.00;98558.63;5074587;28;20177;-81
2022/11/22 08:33:52;;;;;;;0.00;0.00;;;;;;;3.39;100.00;98557.09;5090566;28;20166;-81
2022/11/22 08:36:17;;;;;;;0.00;0.00;;;;;;;3.46;100.00;98557.44;5090701;28;20253;-82
2022/11/22 08:38:43;;;;;;;1.00;0.93;;;;;;;3.54;100.00;98556.69;5091191;28;20723;-82
2022/11/22 08:41:09;;;;;;;0.50;0.50;;;;;;;3.62;100.00;98562.44;5090723;28;20573;-82
2022/11/22 08:43:35;;;;;;;0.00;0.00;;;;;;;3.64;100.00;98569.13;5090491;28;20663;-81
2022/11/22 08:46:01;;;;;;;0.30;0.30;;;;;;;3.58;100.00;98554.97;5090788;28;20166;-81
2022/11/22 08:48:28;;;;;;;0.77;0.77;;;;;;;3.66;100.00;98566.13;5089232;28;20213;-81
2022/11/22 08:50:59;;;;;;;1.70;1.13;;;;;;;3.68;100.00;98566.59;5091278;28;20266;-81
2022/11/22 08:53:25;;;;;;;0.00;0.00;;;;;;;3.71;100.00;98571.38;5093080;28;20507;-81
2022/11/22 08:55:51;;;;;;;1.03;0.83;;;;;;;3.71;100.00;98576.78;5094376;28;20252;-81
2022/11/22 08:58:17;;;;;;;0.20;0.20;;;;;;;3.70;100.00;98578.69;5093080;28;20208;-81
2022/11/22 09:00:43;;;;;;;1.30;1.30;;;;;;;3.83;100.00;98574.28;5094746;28;20174;-82
2022/11/22 09:03:09;;;;;;;0.70;0.70;;;;;;;3.86;100.00;98579.84;5094172;28;20180;-82
2022/11/22 09:05:34;;;;;;;1.87;1.63;;;;;;;3.88;100.00;98582.22;5094499;28;20256;-81
2022/11/22 09:08:00;;;;;;;3.10;2.90;;;;;;;3.89;100.00;98578.41;5094151;28;20186;-81
2022/11/22 09:10:25;;;;;;;0.33;0.33;;;;;;;3.88;100.00;98595.72;5094232;28;20174;-81
2022/11/22 09:12:51;;;;;;;3.77;3.53;;;;;;;3.88;100.00;98596.53;5093655;28;20169;-80
2022/11/22 09:15:16;;;;;;;0.00;0.00;;;;;;;3.89;100.00;98586.53;5093814;28;20162;-80
2022/11/22 09:17:42;;;;;;;1.90;1.80;;;;;;;3.96;100.00;98596.88;5094266;28;20334;-81
2022/11/22 09:20:09;;;;;;;0.97;0.97;;;;;;;3.99;100.00;98597.06;5094057;28;20174;-81
2022/11/22 09:22:34;;;;;;;1.40;1.30;;;;;;;4.05;100.00;98612.03;5092509;28;20173;-81
2022/11/22 09:25:00;;;;;;;0.43;0.43;;;;;;;4.08;100.00;98607.91;5094173;28;20173;-77
2022/11/22 09:27:25;;;;;;;0.00;0.00;;;;;;;4.11;100.00;98613.47;5090176;28;20178;-81
2022/11/22 09:29:51;;;;;;;0.00;0.00;;;;;;;4.16;100.00;98609.81;5073837;28;20656;-81
2022/11/22 09:32:16;;;;;;;0.00;0.00;;;;;;;4.17;100.00;98617.59;5080537;28;20626;-79
2022/11/22 09:34:42;;;;;;;2.40;2.03;;;;;;;4.27;100.00;98627.34;5084225;28;20531;-80
2022/11/22 09:37:07;;;;;;;0.50;0.50;;;;;;;4.34;100.00;98632.25;5073336;28;20271;-81
2022/11/22 09:39:32;;;;;;;1.07;0.40;;;;;;;4.38;100.00;98630.53;5073324;28;20175;-80
2022/11/22 09:42:30;;;;;;;0.33;0.33;;;;;;;4.42;100.00;98632.28;5072088;28;20647;-75
2022/11/22 09:45:24;;;;;;;3.13;0.50;;;;;;;4.53;100.00;98632.78;5037499;28;20545;-78
2022/11/22 09:48:07;;;;;;;0.80;0.63;;;;;;;4.62;100.00;98630.88;5073325;28;20177;-77
2022/11/22 09:50:57;;;;;;;0.40;0.40;;;;;;;4.66;100.00;98634.56;5072171;28;20182;-78
2022/11/22 09:53:34;;;;;;;1.10;0.97;;;;;;;4.73;100.00;98626.75;5072973;28;20246;-78
2022/11/22 09:56:02;;;;;;;0.00;0.00;;;;;;;4.86;100.00;98632.34;5071821;28;20189;-79
2022/11/22 09:58:29;;;;;;;0.30;0.30;;;;;;;4.95;100.00;98643.97;5073267;28;20221;-77
2022/11/22 10:01:01;;;;;;;1.53;1.43;;;;;;;5.09;100.00;98636.50;5073026;28;20175;-77
2022/11/22 10:03:41;;;;;;;0.13;0.13;;;;;;;5.16;100.00;98636.78;5079763;28;20641;-78
2022/11/22 10:06:15;;;;;;;0.10;0.10;;;;;;;5.12;100.00;98638.56;5093186;28;20170;-77
2022/11/22 10:09:17;;;;;;;0.13;0.13;;;;;;;5.12;100.00;98637.75;5092991;28;20186;-78
2022/11/22 10:11:52;;;;;;;1.10;0.40;;;;;;;5.08;100.00;98635.69;5093108;28;20524;-76
2022/11/22 10:14:48;;;;;;;2.03;1.93;;;;;;;5.02;100.00;98631.53;5092939;28;20668;-78
2022/11/22 10:17:28;;;;;;;0.00;0.00;;;;;;;5.08;100.00;98624.06;5091530;28;20790;-77
2022/11/22 10:20:11;;;;;;;0.43;0.27;;;;;;;5.23;100.00;98620.88;5092667;28;20177;-78
2022/11/22 10:22:36;;;;;;;1.07;0.73;;;;;;;5.11;100.00;98618.00;5092889;28;20177;-78
2022/11/22 10:25:29;;;;;;;1.67;0.20;;;;;;;5.24;100.00;98616.25;5092753;28;20174;-78
2022/11/22 10:28:10;;;;;;;0.00;0.00;;;;;;;5.22;100.00;98622.00;5073874;28;20189;-78
2022/11/22 10:30:42;;;;;;;0.00;0.00;;;;;;;5.23;100.00;98620.88;5093093;28;20302;-78
2022/11/22 10:33:40;;;;;;;0.00;0.00;;;;;;;5.34;100.00;98605.84;5092700;28;20269;-78
2022/11/22 10:36:37;;;;;;;0.10;0.10;;;;;;;5.48;100.00;98607.59;5092452;28;20162;-77
2022/11/22 10:39:26;;;;;;;2.00;0.77;;;;;;;5.60;100.00;98603.09;5091221;28;20190;-77
2022/11/22 10:42:10;;;;;;;0.00;0.00;;;;;;;5.61;100.00;98604.69;5092437;28;20542;-78
2022/11/22 10:44:59;;;;;;;0.00;0.00;;;;;;;5.68;100.00;98606.91;5092259;28;20189;-77
2022/11/22 10:47:41;;;;;;;0.00;0.00;;;;;;;5.80;100.00;98607.03;5092298;28;20929;-78
2022/11/22 10:50:21;;;;;;;0.40;0.40;;;;;;;5.84;100.00;98602.53;5092627;28;20180;-77
2022/11/22 10:52:52;;;;;;;0.27;0.27;;;;;;;5.96;100.00;98602.69;5092072;28;20177;-77
2022/11/22 10:55:55;;;;;;;0.00;0.00;;;;;;;5.93;100.00;98595.19;5092106;28;20170;-77
2022/11/22 10:58:39;;;;;;;0.07;0.07;;;;;;;6.11;100.00;98600.53;5091974;28;20290;-77
2022/11/22 11:01:28;;;;;;;0.00;0.00;;;;;;;5.99;100.00;98581.44;5092304;28;20249;-77
2022/11/22 11:03:58;;;;;;;0.00;0.00;;;;;;;6.14;100.00;98583.59;5080854;28;20190;-77
2022/11/22 11:06:33;;;;;;;0.77;0.53;;;;;;;5.99;100.00;98565.97;5090683;28;20178;-77
2022/11/22 11:09:26;;;;;;;0.00;0.00;;;;;;;6.02;100.00;98569.94;5090502;28;20346;-77
2022/11/22 11:11:53;;;;;;;0.00;0.00;;;;;;;6.06;100.00;98573.59;5091953;28;20212;-76
2022/11/22 11:14:26;;;;;;;0.47;0.47;;;;;;;5.96;100.00;98574.78;5089543;28;20174;-77
2022/11/22 11:16:52;;;;;;;0.00;0.00;;;;;;;5.89;100.00;98572.53;5091668;28;20200;-80
2022/11/22 11:19:23;;;;;;;0.53;0.50;;;;;;;5.94;100.00;98579.72;5091667;28;20181;-75
2022/11/22 11:22:11;;;;;;;0.10;0.10;;;;;;;6.04;100.00;98568.50;5091806;28;20200;-77
2022/11/22 11:24:39;;;;;;;0.00;0.00;;;;;;;6.08;100.00;98574.88;5091639;28;20169;-76
2022/11/22 11:27:06;;;;;;;4.57;0.57;;;;;;;5.89;100.00;98566.31;5091623;28;20170;-78
2022/11/22 11:29:53;;;;;;;0.00;0.00;;;;;;;6.14;100.00;98565.41;5091920;28;20169;-81
2022/11/22 11:32:20;;;;;;;0.27;0.27;;;;;;;6.29;100.00;98577.59;5092850;28;20175;-75
2022/11/22 11:35:04;;;;;;;1.57;1.47;;;;;;;6.32;99.30;98566.09;5095874;28;20170;-76
2022/11/22 11:37:35;;;;;;;0.00;0.00;;;;;;;6.31;98.85;98577.28;5091406;28;20209;-74
2022/11/22 11:40:01;;;;;;;0.47;0.47;;;;;;;6.28;98.77;98575.22;5091410;28;20215;-76
2022/11/22 11:42:32;;;;;;;0.00;0.00;;;;;;;6.30;98.02;98573.78;5091515;28;20177;-75
2022/11/22 11:45:26;;;;;;;0.30;0.30;;;;;;;6.32;99.04;98574.25;5090152;28;20674;-74
2022/11/22 11:47:52;;;;;;;0.00;0.00;;;;;;;6.34;98.69;98568.47;5091228;28;20162;-85
2022/11/22 11:50:19;;;;;;;0.60;0.60;;;;;;;6.34;98.46;98560.34;5091428;28;20185;-79
2022/11/22 11:53:05;;;;;;;0.00;0.00;;;;;;;6.36;98.53;98563.50;5091634;28;20181;-76
2022/11/22 11:55:33;;;;;;;0.00;0.00;;;;;;;6.42;99.07;98563.00;5090990;28;20264;-78